Aviation Digital Data Service (ADDS)

Output produced by METARs form (0313 UTC 29 August 2014)
found at http://aviationweather.gov/adds/metars/
 
KAVL 282325Z 2900/2924 17008KT P6SM SCT050 
     FM291000 00000KT 2SM BR FEW020 
     FM291300 16003KT P6SM SCT060